Latest Weather Observations for Richmond

IDN60901

Issued at 7:01 am EST Tuesday 5 May 2015 (issued every 10 minutes, with the page automatically refreshed every 10 minutes)

About weather observations | Map of Sydney area stations | Latest observations for Sydney area | Other Formats
Station Details ID: 067105 Name: RICHMOND RAAF Lat: -33.60 Lon: 150.78 Height: 19.0 m
Data from the previous 72 hours. | See also: Recent months at Richmond
Date/Time
EST
Tmp

°C
App
Tmp
°C
Dew
Point
°C
Rel
Hum
%
Delta-T

°C
Wind Press
QNH
hPa
Press
MSL
hPa
Rain
since
9 am
mm
Dir
 
Spd
km/h
Gust
km/h
Spd
kts
Gust
kts
05/07:00am 13.0 13.5 12.8 99 0.1 SW 2 6 1 3 1009.2 1009.2 0.0
05/06:30am 12.8 12.9 12.6 99 0.1 SW 4 7 2 4 1009.0 1009.0 0.0
05/05:30am 13.8 14.9 13.6 99 0.1 CALM 0 0 0 0 1009.7 1009.7 0.0
05/05:00am 14.0 15.2 13.8 99 0.1 CALM 0 0 0 0 1009.8 1009.8 0.0
05/04:30am 13.9 15.1 13.7 99 0.1 CALM 0 0 0 0 1010.1 1010.1 0.0
05/04:00am 14.0 14.4 13.8 99 0.1 NNE 4 6 2 3 1010.1 1010.1 0.0
05/03:30am 14.4 14.6 14.2 99 0.1 N 6 7 3 4 1010.5 1010.5 0.0
05/03:00am 14.8 15.0 14.6 99 0.1 NE 7 11 4 6 1010.7 1010.7 0.0
05/02:30am 14.9 16.4 14.7 99 0.1 CALM 0 0 0 0 1011.3 1011.3 0.0
05/02:00am 14.8 16.3 14.6 99 0.1 CALM 0 0 0 0 1011.6 1011.6 0.0
05/01:30am 14.8 16.3 14.6 99 0.1 CALM 0 0 0 0 1011.9 1011.9 0.0
05/01:00am 15.0 16.6 14.8 99 0.1 CALM 0 0 0 0 1012.3 1012.3 0.0
05/12:30am 14.7 16.1 14.4 98 0.2 CALM 0 0 0 0 1012.5 1012.5 0.0
 
Date/Time
EST
Tmp

°C
App
Tmp
°C
Dew
Point
°C
Rel
Hum
%
Delta-T

°C
Wind Press
QNH
hPa
Press
MSL
hPa
Rain
since
9 am
mm
Dir
 
Spd
km/h
Gust
km/h
Spd
kts
Gust
kts
04/11:46pm 14.3 15.6 14.0 98 0.2 CALM 0 0 0 0 1012.9 1012.9 0.0
04/11:43pm 14.3 15.6 14.0 98 0.2 CALM 0 0 0 0 1013.0 1013.0 0.0
04/11:36pm 14.1 15.3 13.8 98 0.2 CALM 0 0 0 0 1012.9 1012.9 0.0
04/11:30pm 14.5 15.8 14.2 98 0.2 CALM 0 0 0 0 1013.0 1013.0 0.0
04/11:27pm 14.4 15.7 14.1 98 0.2 CALM 0 0 0 0 1013.0 1013.0 0.0
04/11:01pm 14.7 16.1 14.4 98 0.2 CALM 0 0 0 0 1013.3 1013.3 0.0
04/11:00pm 14.7 16.1 14.4 98 0.2 CALM 0 0 0 0 1013.3 1013.3 0.0
04/10:41pm 15.3 16.9 15.0 98 0.2 CALM 0 0 0 0 1013.5 1013.5 0.0
04/10:30pm 15.4 17.1 15.1 98 0.2 CALM 0 0 0 0 1013.6 1013.6 0.0
04/10:10pm 15.3 16.9 15.0 98 0.2 CALM 0 0 0 0 1013.8 1013.8 0.0
04/10:02pm 15.2 16.8 14.9 98 0.2 CALM 0 6 0 3 1013.8 1013.8 0.0
04/10:00pm 15.5 16.8 15.2 98 0.2 WSW 2 6 1 3 1013.9 1013.9 0.0
04/09:57pm 15.4 16.7 15.1 98 0.2 WSW 2 6 1 3 1013.9 1013.9 0.0
04/09:45pm 15.6 16.6 15.3 98 0.2 WSW 4 7 2 4 1013.9 1013.9 0.0
04/09:32pm 15.2 16.7 14.7 97 0.3 CALM 0 0 0 0 1014.0 1014.0 0.0
04/09:30pm 15.2 16.7 14.7 97 0.3 CALM 0 0 0 0 1014.0 1014.0 0.0
04/09:00pm 15.5 16.7 14.9 96 0.3 NNW 2 6 1 3 1013.8 1013.8 0.0
04/08:53pm 15.8 16.4 15.2 96 0.3 NNW 6 7 3 4 1013.8 1013.8 0.0
04/08:42pm 16.2 16.9 15.7 97 0.3 N 6 7 3 4 1013.8 1013.8 0.0
04/08:30pm 16.4 18.3 15.8 96 0.4 CALM 0 0 0 0 1013.7 1013.7 0.0
04/08:28pm 16.5 18.5 15.9 96 0.4 CALM 0 0 0 0 1013.7 1013.7 0.0
04/08:06pm 16.5 18.3 15.4 93 0.6 CALM 0 0 0 0 1013.6 1013.6 0.0
04/08:00pm 17.1 19.2 16.3 95 0.5 CALM 0 0 0 0 1013.6 1013.6 0.0
04/07:30pm 17.2 18.0 15.9 92 0.8 N 6 7 3 4 1013.6 1013.6 0.0
04/07:00pm 17.8 18.8 16.3 91 0.9 NE 6 6 3 3 1013.6 1013.6 0.0
04/06:30pm 18.2 19.0 16.4 89 1.1 NE 7 9 4 5 1013.4 1013.4 0.0
04/05:30pm 19.3 19.3 16.2 82 1.9 ENE 11 13 6 7 1013.2 1013.2 0.0
04/05:00pm 20.3 20.7 16.3 78 2.4 ENE 9 13 5 7 1013.1 1013.1 0.0
04/04:30pm 21.5 21.6 16.5 73 3.0 ENE 11 13 6 7 1012.9 1012.9 0.0
04/04:00pm 22.2 22.5 16.0 68 3.7 NE 9 13 5 7 1013.0 1013.0 0.0
04/03:30pm 22.1 22.5 16.4 70 3.5 NNE 9 13 5 7 1013.1 1013.1 0.0
04/03:00pm 22.0 22.6 15.8 68 3.7 NE 7 9 4 5 1013.1 1013.1 0.0
04/02:30pm 22.3 22.9 15.9 67 3.9 NNE 7 11 4 6 1013.2 1013.2 0.0
04/02:00pm 22.2 22.6 15.3 65 4.1 ENE 7 11 4 6 1013.1 1013.1 0.0
04/01:30pm 21.9 22.2 16.0 69 3.6 ESE 9 15 5 8 1013.5 1013.5 0.0
04/01:00pm 22.3 23.2 15.2 64 4.2 SSE 4 7 2 4 1013.8 1013.8 0.0
04/12:30pm 21.8 22.4 15.4 67 3.8 S 6 11 3 6 1014.3 1014.3 0.0
04/12:00pm 21.6 22.3 15.7 69 3.5 WSW 6 11 3 6 1014.8 1014.8 0.0
04/11:30am 21.7 21.8 15.5 68 3.7 SSW 9 13 5 7 1015.2 1015.2 0.0
04/11:00am 21.0 20.9 14.9 68 3.6 SW 9 15 5 8 1015.7 1015.7 0.0
04/10:30am 20.7 20.9 14.6 68 3.6 S 7 13 4 7 1015.8 1015.8 0.0
04/10:00am 20.5 22.2 15.3 72 3.1 CALM 0 6 0 3 1016.1 1016.1 0.0
04/09:30am 19.6 20.8 15.0 75 2.7 NW 2 7 1 4 1016.2 1016.2 0.0
04/09:00am 18.9 19.2 15.0 78 2.3 N 7 9 4 5 1016.3 1016.3 0.0
04/08:30am 18.6 19.5 15.1 80 2.0 NE 4 6 2 3 1016.4 1016.4 0.0
04/08:00am 18.1 18.6 15.5 85 1.5 NNE 7 9 4 5 1016.2 1016.2 0.0
04/07:30am 17.7 17.7 15.1 85 1.5 ENE 9 11 5 6 1015.9 1015.9 0.0
04/07:00am 17.3 18.0 15.5 89 1.1 NE 6 7 3 4 1015.5 1015.5 0.0
04/06:30am 17.3 19.1 15.5 89 1.1 CALM 0 0 0 0 1015.2 1015.2 0.0
04/06:00am 17.5 19.1 15.0 85 1.5 CALM 0 0 0 0 1015.1 1015.1 0.0
04/05:30am 17.8 18.6 14.7 82 1.8 S 4 6 2 3 1015.1 1015.1 0.0
04/05:00am 17.9 18.0 14.4 80 2.0 SW 7 7 4 4 1015.0 1015.0 0.0
04/04:30am 17.9 18.0 14.4 80 2.0 SW 7 11 4 6 1014.8 1014.8 0.0
04/04:00am 18.0 17.7 14.3 79 2.1 WSW 9 11 5 6 1014.5 1014.5 0.0
04/03:30am 18.0 17.4 14.5 80 2.0 WSW 11 13 6 7 1014.7 1014.7 0.0
04/03:00am 17.7 19.4 15.1 85 1.5 CALM 0 7 0 4 1014.9 1014.9 0.0
04/02:30am 17.8 19.4 14.9 83 1.7 CALM 0 0 0 0 1015.0 1015.0 0.0
04/02:00am 17.9 18.3 14.8 82 1.8 SSW 6 7 3 4 1015.0 1015.0 0.0
04/01:30am 18.1 17.9 14.6 80 2.0 SW 9 13 5 7 1015.1 1015.1 0.0
04/01:00am 18.2 17.9 14.3 78 2.2 SW 9 13 5 7 1015.3 1015.3 0.0
04/12:30am 18.3 17.9 14.2 77 2.4 SSW 9 11 5 6 1015.3 1015.3 0.0
04/12:00am 18.5 18.1 14.2 76 2.5 SSE 9 13 5 7 1015.3 1015.3 0.0
 
Date/Time
EST
Tmp

°C
App
Tmp
°C
Dew
Point
°C
Rel
Hum
%
Delta-T

°C
Wind Press
QNH
hPa
Press
MSL
hPa
Rain
since
9 am
mm
Dir
 
Spd
km/h
Gust
km/h
Spd
kts
Gust
kts
03/11:30pm 18.4 17.6 14.1 76 2.5 SE 11 13 6 7 1015.4 1015.4 0.0
03/11:00pm 18.5 18.1 14.2 76 2.5 SE 9 11 5 6 1015.3 1015.3 0.0
03/10:30pm 18.8 18.2 13.6 72 3.0 S 9 11 5 6 1015.5 1015.5 0.0
03/10:00pm 19.1 18.2 13.7 71 3.1 SSW 11 13 6 7 1015.6 1015.6 0.0
03/09:30pm 19.4 18.9 13.8 70 3.2 SSW 9 15 5 8 1015.8 1015.8 0.0
03/09:00pm 19.4 18.5 13.8 70 3.2 SSW 11 17 6 9 1016.0 1016.0 0.0
03/08:30pm 19.5 19.4 15.0 75 2.6 SSW 9 13 5 7 1015.9 1015.9 0.0
03/08:00pm 19.7 19.7 16.2 80 2.1 SSE 11 15 6 8 1015.9 1015.9 0.0
03/07:30pm 20.3 19.9 16.1 77 2.5 SSE 13 17 7 9 1015.6 1015.6 0.0
03/07:00pm 20.5 19.9 16.7 79 2.3 SSE 15 22 8 12 1015.2 1015.2 0.0
03/06:30pm 20.5 20.5 17.3 82 2.0 SE 13 17 7 9 1014.7 1014.7 0.0
03/06:00pm 20.7 21.2 17.5 82 2.0 SE 11 15 6 8 1014.2 1014.2 0.0
03/05:30pm 20.9 21.0 17.5 81 2.1 SE 13 15 7 8 1013.8 1013.8 0.0
03/05:00pm 21.6 21.2 17.2 76 2.7 SSE 15 19 8 10 1013.8 1013.8 0.0
03/04:30pm 21.9 20.7 17.1 74 2.9 S 19 26 10 14 1013.5 1013.5 0.0
03/04:00pm 22.2 22.5 18.0 77 2.6 SSW 13 17 7 9 1013.2 1013.2 0.0
03/03:30pm 21.6 21.5 17.8 79 2.4 SSW 15 20 8 11 1012.9 1012.9 0.0
03/03:00pm 22.6 22.9 17.9 75 2.9 SSE 13 20 7 11 1012.6 1012.6 0.0
03/02:30pm 23.3 24.1 18.2 73 3.2 S 11 17 6 9 1012.6 1012.6 0.0
03/02:00pm 23.2 22.6 17.6 71 3.5 S 17 22 9 12 1012.9 1012.9 0.0
03/01:30pm 23.0 23.3 17.9 73 3.2 S 13 20 7 11 1013.1 1013.1 0.0
03/01:00pm 22.7 21.7 18.0 75 2.9 S 20 32 11 17 1013.3 1013.3 0.0
03/12:30pm 22.4 21.3 17.8 75 2.9 SSW 20 32 11 17 1013.6 1013.6 0.0
03/12:00pm 22.1 21.3 17.9 77 2.6 S 19 24 10 13 1013.9 1013.9 0.0
03/11:30am 21.6 21.0 17.6 78 2.5 S 17 28 9 15 1014.3 1014.3 0.0
03/11:00am 21.1 20.9 17.5 80 2.2 S 15 20 8 11 1014.5 1014.5 0.0
03/10:30am 20.6 20.9 17.8 84 1.7 SSW 13 17 7 9 1014.6 1014.6 0.0
03/10:00am 20.0 20.6 17.8 87 1.4 SSW 11 15 6 8 1014.6 1014.6 0.0
03/09:30am 19.7 20.7 17.7 88 1.2 SSW 9 13 5 7 1014.9 1014.9 0.0
03/09:00am 19.5 19.3 17.5 88 1.2 SSW 15 24 8 13 1015.0 1015.0 26.8
03/08:30am 19.0 19.9 17.5 91 0.9 SSW 9 15 5 8 1015.0 1015.0 26.8
03/08:00am 18.9 19.7 17.4 91 0.9 SSW 9 13 5 7 1014.8 1014.8 26.8
03/07:30am 18.7 19.1 17.2 91 0.9 SSW 11 17 6 9 1014.2 1014.2 26.4
03/07:06am 18.5 19.3 17.2 92 0.8 SSW 9 13 5 7 1013.9 1013.9 26.4
03/07:00am 18.5 19.3 17.2 92 0.8 SSW 9 13 5 7 1013.8 1013.8 26.4
03/06:30am 18.5 18.9 17.2 92 0.8 SW 11 15 6 8 1013.5 1013.5 26.4
03/06:00am 18.5 18.9 17.2 92 0.8 SSW 11 15 6 8 1013.5 1013.5 26.4
03/05:30am 18.5 18.9 17.3 93 0.7 SSW 11 15 6 8 1013.4 1013.4 26.4
03/05:00am 18.5 19.4 17.5 94 0.6 S 9 13 5 7 1013.2 1013.2 26.4
03/04:30am 18.4 19.9 17.6 95 0.5 SSE 6 7 3 4 1013.2 1013.2 26.4
03/04:00am 18.5 19.9 17.7 95 0.5 S 7 11 4 6 1013.2 1013.2 26.4
03/03:54am 18.5 19.9 17.7 95 0.5 S 7 9 4 5 1013.1 1013.1 26.4
03/03:30am 18.5 19.5 17.7 95 0.5 S 9 13 5 7 1013.1 1013.1 26.4
03/03:00am 18.3 18.9 17.7 96 0.4 SSW 11 15 6 8 1013.3 1013.3 26.4
03/02:30am 18.3 19.3 17.8 97 0.3 SSW 9 13 5 7 1013.6 1013.6 26.4
03/02:00am 18.3 19.3 17.8 97 0.3 SSW 9 13 5 7 1014.1 1014.1 26.4
03/01:30am 18.3 19.4 18.0 98 0.2 S 9 13 5 7 1014.4 1014.4 26.4
03/01:00am 18.2 19.3 17.9 98 0.2 SSW 9 13 5 7 1014.7 1014.7 26.4
03/12:51am 18.2 19.3 17.9 98 0.2 SSW 9 13 5 7 1014.8 1014.8 26.4
03/12:39am 18.2 19.3 17.9 98 0.2 SSW 9 13 5 7 1014.8 1014.8 26.4
03/12:30am 18.2 19.3 17.9 98 0.2 SSW 9 13 5 7 1014.8 1014.8 26.4
03/12:00am 18.2 19.3 17.9 98 0.2 SSW 9 15 5 8 1015.1 1015.1 26.4
 
Date/Time
EST
Tmp

°C
App
Tmp
°C
Dew
Point
°C
Rel
Hum
%
Delta-T

°C
Wind Press
QNH
hPa
Press
MSL
hPa
Rain
since
9 am
mm
Dir
 
Spd
km/h
Gust
km/h
Spd
kts
Gust
kts
02/11:58pm 18.2 19.3 17.9 98 0.2 SSW 9 15 5 8 1015.1 1015.1 26.4
02/11:30pm 18.1 18.4 17.9 99 0.1 SW 13 17 7 9 1015.1 1015.1 26.0
02/11:00pm 18.1 19.2 17.9 99 0.1 SW 9 13 5 7 1015.4 1015.4 26.0
02/10:30pm 18.1 18.4 17.9 99 0.1 SSW 13 17 7 9 1015.6 1015.6 26.0
02/10:03pm 18.1 18.4 17.9 99 0.1 SSW 13 15 7 8 1016.0 1016.0 26.0
02/10:00pm 18.1 18.8 17.9 99 0.1 SSW 11 15 6 8 1016.1 1016.1 26.0
02/09:30pm 18.2 19.3 18.0 99 0.1 S 9 11 5 6 1016.4 1016.4 26.0
02/09:00pm 18.3 19.4 18.0 98 0.2 S 9 11 5 6 1016.2 1016.2 25.8
02/08:30pm 18.4 19.2 18.1 98 0.2 S 11 15 6 8 1016.1 1016.1 25.8
02/08:00pm 18.5 19.4 18.3 99 0.1 S 11 17 6 9 1016.1 1016.1 25.4
02/07:56pm 18.5 19.0 18.3 99 0.1 S 13 17 7 9 1016.0 1016.0 25.4
02/07:32pm 18.5 19.0 18.3 99 0.1 SSW 13 17 7 9 1016.0 1016.0 24.8
02/07:30pm 18.5 19.0 18.3 99 0.1 SSW 13 19 7 10 1016.0 1016.0 24.8
02/07:27pm 18.5 19.0 18.3 99 0.1 SSW 13 19 7 10 1016.0 1016.0 24.8
02/07:15pm 18.6 19.1 18.4 99 0.1 SSW 13 17 7 9 1016.1 1016.1 24.0
02/07:00pm 18.7 19.6 18.4 98 0.2 SSW 11 17 6 9 1016.2 1016.2 23.0
02/06:30pm 18.7 20.0 18.5 99 0.1 S 9 13 5 7 1016.1 1016.1 23.0
02/06:27pm 18.8 20.2 18.6 99 0.1 S 9 13 5 7 1016.1 1016.1 23.0
02/06:10pm 18.7 20.0 18.5 99 0.1 SSW 9 13 5 7 1016.1 1016.1 23.0
02/06:00pm 18.7 19.3 18.5 99 0.1 SW 13 15 7 8 1016.0 1016.0 23.0
02/05:30pm 18.7 19.2 18.4 98 0.2 SW 13 17 7 9 1015.9 1015.9 23.0
02/05:04pm 18.9 19.8 18.4 97 0.3 SW 11 13 6 7 1015.8 1015.8 23.0
02/05:00pm 18.9 19.8 18.4 97 0.3 SSW 11 13 6 7 1015.9 1015.9 23.0
02/04:30pm 19.3 20.7 18.6 96 0.4 SSE 9 11 5 6 1016.1 1016.1 23.0
02/04:00pm 19.3 20.6 18.5 95 0.5 ESE 9 13 5 7 1016.1 1016.1 23.0
02/03:43pm 19.3 19.9 18.5 95 0.5 E 13 20 7 11 1016.1 1016.1 23.0
02/03:30pm 19.5 19.8 18.7 95 0.5 E 15 20 8 11 1016.1 1016.1 22.8
02/03:22pm 19.8 20.8 19.5 98 0.2 NE 13 28 7 15 1016.0 1016.0 22.4
02/03:09pm 19.4 20.2 19.1 98 0.2 SW 13 24 7 13 1015.9 1015.9 22.0
02/03:00pm 19.7 20.7 19.4 98 0.2 SW 13 15 7 8 1015.8 1015.8 21.0
02/02:49pm 20.1 21.8 19.4 96 0.4 SW 9 13 5 7 1016.0 1016.0 13.4
02/02:30pm 20.1 21.8 19.3 95 0.5 WSW 9 11 5 6 1015.9 1015.9 12.4
02/02:29pm 20.2 21.9 19.4 95 0.5 SW 9 11 5 6 1016.0 1016.0 12.4
02/02:08pm 20.3 22.6 19.5 95 0.5 SSE 6 9 3 5 1016.3 1016.3 12.0
02/02:04pm 20.3 22.5 19.3 94 0.6 SSE 6 7 3 4 1016.4 1016.4 12.0
02/02:00pm 20.3 22.6 19.5 95 0.5 SSE 6 7 3 4 1016.4 1016.4 12.0
02/01:30pm 20.0 21.2 19.0 94 0.6 ESE 11 17 6 9 1016.6 1016.6 12.0
02/01:23pm 20.2 21.5 19.2 94 0.6 ESE 11 17 6 9 1016.6 1016.6 12.0
02/01:10pm 20.2 20.6 18.9 92 0.8 SE 15 22 8 12 1016.7 1016.7 11.4
02/01:00pm 21.3 23.3 19.2 88 1.3 SSE 7 11 4 6 1016.6 1016.6 11.0
02/12:36pm 21.0 23.1 19.3 90 1.1 SSE 7 11 4 6 1017.1 1017.1 11.0
02/12:30pm 20.9 22.8 19.0 89 1.2 SSE 7 11 4 6 1017.2 1017.2 11.0
02/12:00pm 20.0 21.8 18.8 93 0.7 SW 7 9 4 5 1018.0 1018.0 11.0
02/11:51am 20.0 23.0 19.3 96 0.4 S 2 9 1 5 1018.1 1018.1 11.0
02/11:42am 19.5 21.6 19.3 99 0.1 ENE 7 11 4 6 1018.3 1018.3 11.0
02/11:30am 19.3 20.7 18.6 96 0.4 N 9 20 5 11 1018.7 1018.7 10.8
02/11:14am 19.0 19.5 18.3 96 0.4 NW 13 22 7 12 1018.7 1018.7 3.2
02/11:00am 19.3 20.1 18.1 93 0.7 SW 11 19 6 10 1019.0 1019.0 1.2
02/10:50am 19.6 19.5 17.9 90 1.0 SSW 15 20 8 11 1019.0 1019.0 0.4
02/10:30am 20.1 20.1 18.2 89 1.2 SSW 15 19 8 10 1019.2 1019.2 0.0
02/10:00am 19.8 19.9 18.3 91 0.9 SSW 15 19 8 10 1019.8 1019.8 0.0
02/09:30am 19.0 19.0 18.0 94 0.6 SSW 15 20 8 11 1020.3 1020.3 0.0
02/09:00am 17.7 17.8 17.4 98 0.2 SSW 13 17 7 9 1020.7 1020.7 5.2
02/08:52am 17.5 17.5 17.2 98 0.2 SSW 13 20 7 11 1020.7 1020.7 5.2
02/08:30am 16.8 17.7 16.5 98 0.2 S 7 13 4 7 1021.2 1021.2 5.2
02/08:29am 16.8 17.7 16.5 98 0.2 S 7 13 4 7 1021.2 1021.2 5.2
02/08:00am 16.3 15.8 16.0 98 0.2 SW 13 17 7 9 1020.8 1020.8 4.8
02/07:30am 15.8 16.3 15.5 98 0.2 SW 7 11 4 6 1020.6 1020.6 4.8

Latest Capital City Observations: Canberra | Sydney | Melbourne | Brisbane | Adelaide | Perth | Hobart | Darwin

Other Formats:

Comma delimited format used in spreadsheet applications
http://www.bom.gov.au/fwo/IDN60901/IDN60901.95753.axf

JavaScript Object Notation format (JSON) in row-major order
http://www.bom.gov.au/fwo/IDN60901/IDN60901.95753.json